createdAt,value
2024-04-18T00:00:39.974Z,82.20
2024-04-18T00:03:42.481Z,82.50
2024-04-18T00:06:45.032Z,83.00
2024-04-18T00:09:47.484Z,82.80
2024-04-18T00:12:50.085Z,82.90
2024-04-18T00:15:52.510Z,83.00
2024-04-18T00:18:55.799Z,83.00
2024-04-18T00:21:59.197Z,83.00
2024-04-18T00:25:04.833Z,83.10
2024-04-18T00:28:07.173Z,83.20
2024-04-18T00:31:10.329Z,83.50
2024-04-18T00:34:13.727Z,83.30
2024-04-18T00:37:16.338Z,83.20
2024-04-18T00:40:18.631Z,83.50
2024-04-18T00:43:21.957Z,84.40
2024-04-18T00:46:27.876Z,83.00
2024-04-18T00:49:30.481Z,83.10
2024-04-18T00:52:33.213Z,83.20
2024-04-18T00:55:38.107Z,83.60
2024-04-18T00:58:42.373Z,83.70
2024-04-18T01:01:49.089Z,83.80
2024-04-18T01:04:51.651Z,83.80
2024-04-18T01:07:54.036Z,84.40
2024-04-18T01:10:56.288Z,84.80
2024-04-18T01:13:58.545Z,85.50
2024-04-18T01:17:06.191Z,86.10
2024-04-18T01:20:09.448Z,85.30
2024-04-18T01:23:11.727Z,84.90
2024-04-18T01:26:14.241Z,84.60
2024-04-18T01:29:16.511Z,84.70
2024-04-18T01:32:18.798Z,84.80
2024-04-18T01:35:21.121Z,85.20
2024-04-18T01:38:23.397Z,85.30
2024-04-18T01:41:25.859Z,85.20
2024-04-18T01:44:28.125Z,86.00
2024-04-18T01:47:30.532Z,86.50
2024-04-18T01:50:32.812Z,86.10
2024-04-18T01:53:35.214Z,86.40
2024-04-18T01:56:37.519Z,86.10
2024-04-18T01:59:42.527Z,86.40
2024-04-18T02:02:44.769Z,86.50
2024-04-18T02:05:47.767Z,86.70
2024-04-18T02:08:50.233Z,87.20
2024-04-18T02:11:52.909Z,87.50
2024-04-18T02:14:55.249Z,87.70
2024-04-18T02:17:57.535Z,87.70
2024-04-18T02:20:59.808Z,87.60
2024-04-18T02:24:02.195Z,87.60
2024-04-18T02:27:04.566Z,87.90
2024-04-18T02:30:08.429Z,86.70
2024-04-18T02:33:11.289Z,86.30
2024-04-18T02:36:13.642Z,86.10
2024-04-18T02:39:15.979Z,86.30
2024-04-18T02:42:18.372Z,86.10
2024-04-18T02:45:21.048Z,86.10
2024-04-18T02:48:23.456Z,86.20
2024-04-18T02:51:25.842Z,86.10
2024-04-18T02:54:28.413Z,86.20
2024-04-18T02:57:30.731Z,86.00
2024-04-18T03:00:36.288Z,86.10
2024-04-18T03:03:38.697Z,86.10
2024-04-18T03:06:41.002Z,86.10
2024-04-18T03:09:43.375Z,86.10
2024-04-18T03:12:45.761Z,86.10
2024-04-18T03:15:48.394Z,86.30
2024-04-18T03:18:50.853Z,86.20
2024-04-18T03:21:54.244Z,86.40
2024-04-18T03:24:56.622Z,86.80
2024-04-18T03:27:58.861Z,86.90
2024-04-18T03:31:04.776Z,86.80
2024-04-18T03:34:07.123Z,87.10
2024-04-18T03:37:09.536Z,87.20
2024-04-18T03:40:11.821Z,87.30
2024-04-18T03:43:15.150Z,87.50
2024-04-18T03:46:17.427Z,87.70
2024-04-18T03:49:19.843Z,88.20
2024-04-18T03:52:22.194Z,88.20
2024-04-18T03:55:24.574Z,88.20
2024-04-18T03:58:26.889Z,89.00
2024-04-18T04:01:31.153Z,88.20
2024-04-18T04:04:34.891Z,88.00
2024-04-18T04:07:37.186Z,86.70
2024-04-18T04:10:43.904Z,86.70
2024-04-18T04:13:46.404Z,86.90
2024-04-18T04:16:52.683Z,86.80
2024-04-18T04:19:54.898Z,86.60
2024-04-18T04:22:57.790Z,85.50
2024-04-18T04:26:00.385Z,85.70
2024-04-18T04:29:02.747Z,85.30
2024-04-18T04:32:05.269Z,85.40
2024-04-18T04:35:07.699Z,85.30
2024-04-18T04:38:09.997Z,85.40
2024-04-18T04:41:12.473Z,85.20
2024-04-18T04:44:14.732Z,85.00
2024-04-18T04:47:16.982Z,84.80
2024-04-18T04:50:19.496Z,85.00
2024-04-18T04:53:21.788Z,85.10
2024-04-18T04:56:24.109Z,85.10
2024-04-18T04:59:26.434Z,85.10
2024-04-18T05:02:28.798Z,86.00
2024-04-18T05:05:31.103Z,85.20
2024-04-18T05:08:33.388Z,85.00
2024-04-18T05:11:36.191Z,84.40
2024-04-18T05:14:38.691Z,84.40
2024-04-18T05:17:40.979Z,84.70
2024-04-18T05:20:43.390Z,85.10
2024-04-18T05:23:45.797Z,85.30
2024-04-18T05:26:48.110Z,84.90
2024-04-18T05:30:09.167Z,85.20
2024-04-18T05:33:11.484Z,85.50
2024-04-18T05:36:13.768Z,85.50
2024-04-18T05:39:16.076Z,85.50
2024-04-18T05:42:19.904Z,84.40
2024-04-18T05:45:22.261Z,85.40
2024-04-18T05:48:24.823Z,85.60
2024-04-18T05:51:28.836Z,85.50
2024-04-18T05:54:31.730Z,85.30
2024-04-18T05:57:34.299Z,85.20
2024-04-18T06:00:37.112Z,85.20
2024-04-18T06:03:45.113Z,85.20
2024-04-18T06:06:47.875Z,85.10
2024-04-18T06:09:50.304Z,85.00
2024-04-18T06:12:52.732Z,85.20
2024-04-18T06:15:55.493Z,84.40
2024-04-18T06:18:58.857Z,85.00
2024-04-18T06:22:02.208Z,85.00
2024-04-18T06:25:04.867Z,84.00
2024-04-18T06:28:13.331Z,84.00
2024-04-18T06:31:18.297Z,83.60
2024-04-18T06:34:24.061Z,83.20
2024-04-18T06:37:27.461Z,82.90
2024-04-18T06:40:29.713Z,82.40
2024-04-18T06:43:32.041Z,80.80
2024-04-18T06:46:52.723Z,79.90
2024-04-18T06:50:02.741Z,78.80
2024-04-18T06:53:08.237Z,78.00
2024-04-18T06:56:12.820Z,77.20
2024-04-18T06:59:17.394Z,76.80
2024-04-18T07:02:19.861Z,77.00
2024-04-18T07:05:25.932Z,75.40
2024-04-18T07:08:28.469Z,74.70
2024-04-18T07:11:30.857Z,73.90
2024-04-18T07:14:33.099Z,73.20
2024-04-18T07:17:35.470Z,72.60
2024-04-18T07:20:37.934Z,72.50
2024-04-18T07:23:40.216Z,73.50
2024-04-18T07:26:43.927Z,73.30
2024-04-18T07:29:46.352Z,71.70
2024-04-18T07:32:49.077Z,69.40
2024-04-18T07:36:00.097Z,68.40
2024-04-18T07:39:03.763Z,67.60
2024-04-18T07:42:08.180Z,65.80
2024-04-18T07:45:10.765Z,64.70
2024-04-18T07:48:13.745Z,63.80
2024-04-18T07:51:16.333Z,61.30
2024-04-18T07:54:21.709Z,61.30
2024-04-18T07:57:25.974Z,62.30
2024-04-18T08:00:29.807Z,61.30
2024-04-18T08:03:36.216Z,60.30
2024-04-18T08:06:43.883Z,60.70
2024-04-18T08:09:51.044Z,58.90
2024-04-18T08:13:00.190Z,59.50
2024-04-18T08:16:05.478Z,58.20
2024-04-18T08:19:08.167Z,57.10
2024-04-18T08:22:10.615Z,56.70
2024-04-18T08:25:13.485Z,56.20
2024-04-18T08:28:17.753Z,56.00
2024-04-18T08:31:21.006Z,56.30
2024-04-18T08:34:26.828Z,57.00
2024-04-18T08:37:30.115Z,57.60
2024-04-18T08:40:32.955Z,57.20
2024-04-18T08:43:35.436Z,55.00
2024-04-18T08:46:38.720Z,55.50
2024-04-18T08:49:41.863Z,52.90
2024-04-18T08:52:45.652Z,54.20
2024-04-18T08:55:51.846Z,53.60
2024-04-18T08:58:54.287Z,53.00
2024-04-18T09:01:57.151Z,51.60
2024-04-18T09:05:00.324Z,52.80
2024-04-18T09:08:02.733Z,52.30
2024-04-18T09:11:05.761Z,51.10
2024-04-18T09:14:08.200Z,50.60
2024-04-18T09:17:15.082Z,52.70
2024-04-18T09:20:17.837Z,53.50
2024-04-18T09:23:20.167Z,52.40
2024-04-18T09:26:22.417Z,54.70
2024-04-18T09:29:24.759Z,53.90
2024-04-18T09:32:27.651Z,55.80
2024-04-18T09:35:33.361Z,57.50
2024-04-18T09:38:40.630Z,59.00
2024-04-18T09:41:50.159Z,59.40
2024-04-18T09:44:55.532Z,60.90
2024-04-18T09:47:58.839Z,58.70
2024-04-18T09:51:01.596Z,57.90
2024-04-18T09:54:05.396Z,58.80
2024-04-18T09:57:08.741Z,60.60
2024-04-18T10:00:13.542Z,60.20
2024-04-18T10:03:17.834Z,61.30
2024-04-18T10:06:24.263Z,62.10
2024-04-18T10:09:28.619Z,62.30
2024-04-18T10:12:35.936Z,62.00
2024-04-18T10:15:38.595Z,62.80
2024-04-18T10:18:42.284Z,61.10
2024-04-18T10:22:11.639Z,62.30
2024-04-18T10:25:24.683Z,62.90
2024-04-18T10:28:33.700Z,64.00
2024-04-18T10:31:39.661Z,66.20
2024-04-18T10:34:42.822Z,64.00
2024-04-18T10:37:52.160Z,65.30
2024-04-18T10:41:18.807Z,66.00
2024-04-18T10:44:26.370Z,68.00
2024-04-18T10:47:29.590Z,70.00
2024-04-18T10:50:39.520Z,70.80
2024-04-18T10:53:41.834Z,73.80
2024-04-18T10:56:44.351Z,76.10
2024-04-18T10:59:49.140Z,75.80
2024-04-18T11:02:56.368Z,73.70
2024-04-18T11:06:01.464Z,73.90
2024-04-18T11:09:04.026Z,71.30
2024-04-18T11:12:08.050Z,70.50
2024-04-18T11:15:10.601Z,69.20
2024-04-18T11:18:13.356Z,69.20
2024-04-18T11:21:16.338Z,68.40
2024-04-18T11:24:19.098Z,67.00
2024-04-18T11:27:26.798Z,66.90
2024-04-18T11:30:31.732Z,68.10
2024-04-18T11:33:35.367Z,67.80
2024-04-18T11:36:39.919Z,69.30
2024-04-18T11:39:45.890Z,69.50
2024-04-18T11:42:48.864Z,71.60
2024-04-18T11:45:51.624Z,73.30
2024-04-18T11:48:56.385Z,75.00
2024-04-18T11:51:58.898Z,76.60
2024-04-18T11:55:01.684Z,77.90
2024-04-18T11:58:07.143Z,79.00
2024-04-18T12:01:11.412Z,79.70
2024-04-18T12:04:13.988Z,79.70
2024-04-18T12:07:16.486Z,80.40
2024-04-18T12:10:19.527Z,82.10
2024-04-18T12:13:21.984Z,82.00
2024-04-18T12:16:26.209Z,81.20
2024-04-18T12:19:28.609Z,81.70
2024-04-18T12:22:31.064Z,82.30
2024-04-18T12:25:34.149Z,83.30
2024-04-18T12:28:47.699Z,83.10
2024-04-18T12:31:50.146Z,83.00
2024-04-18T12:34:52.660Z,83.20
2024-04-18T12:37:55.769Z,83.60
2024-04-18T12:41:02.196Z,85.20
2024-04-18T12:44:06.479Z,85.40
2024-04-18T12:47:08.969Z,86.10
2024-04-18T12:50:11.451Z,86.70
2024-04-18T12:53:13.974Z,86.90
2024-04-18T12:56:16.576Z,87.00
2024-04-18T12:59:19.034Z,86.80
2024-04-18T13:02:22.004Z,86.10
2024-04-18T13:05:25.227Z,88.20
2024-04-18T13:08:28.471Z,85.70
2024-04-18T13:11:30.846Z,85.50
2024-04-18T13:14:33.180Z,85.50
2024-04-18T13:17:35.509Z,85.80
2024-04-18T13:20:38.270Z,85.90
2024-04-18T13:23:40.561Z,85.80
2024-04-18T13:26:43.039Z,86.50
2024-04-18T13:29:45.371Z,88.80
2024-04-18T13:32:47.924Z,86.70
2024-04-18T13:35:50.634Z,85.10
2024-04-18T13:38:53.421Z,84.80
2024-04-18T13:41:55.834Z,84.50
2024-04-18T13:44:58.608Z,83.80
2024-04-18T13:48:02.211Z,84.10
2024-04-18T13:51:05.011Z,84.80
2024-04-18T13:54:08.504Z,86.10
2024-04-18T13:57:11.235Z,89.10
2024-04-18T14:00:14.070Z,87.70
2024-04-18T14:03:20.036Z,87.90
2024-04-18T14:06:23.574Z,87.90
2024-04-18T14:09:35.518Z,89.20
2024-04-18T14:12:42.808Z,88.90
2024-04-18T14:16:05.206Z,87.50
2024-04-18T14:19:07.484Z,87.10
2024-04-18T14:22:10.240Z,85.80
2024-04-18T14:25:12.602Z,84.90
2024-04-18T14:28:23.897Z,84.70
2024-04-18T14:31:33.690Z,83.70
2024-04-18T14:34:36.144Z,83.90
2024-04-18T14:37:38.698Z,83.30
2024-04-18T14:40:53.038Z,83.20
2024-04-18T14:44:01.197Z,83.10
2024-04-18T14:47:03.907Z,83.70
2024-04-18T14:50:09.537Z,83.10
2024-04-18T14:53:14.955Z,84.10
2024-04-18T14:56:18.188Z,83.60
2024-04-18T14:59:20.736Z,83.00
2024-04-18T15:02:23.148Z,83.30
2024-04-18T15:05:26.748Z,83.00
2024-04-18T15:08:29.159Z,83.30
2024-04-18T15:11:33.150Z,83.40
2024-04-18T15:14:35.605Z,84.20
2024-04-18T15:17:37.952Z,85.10
2024-04-18T15:20:40.926Z,84.20
2024-04-18T15:23:44.017Z,84.60
2024-04-18T15:26:46.476Z,84.30
2024-04-18T15:29:48.714Z,84.90
2024-04-18T15:32:51.606Z,84.60
2024-04-18T15:35:54.152Z,84.80
2024-04-18T15:38:56.600Z,84.80
2024-04-18T15:41:58.950Z,85.60
2024-04-18T15:45:02.261Z,85.30
2024-04-18T15:48:04.847Z,86.00
2024-04-18T15:51:09.342Z,86.40
2024-04-18T15:54:12.092Z,85.90
2024-04-18T15:57:14.677Z,85.70
2024-04-18T16:00:18.355Z,85.80
2024-04-18T16:03:20.817Z,86.70
2024-04-18T16:06:23.335Z,87.20
2024-04-18T16:09:25.887Z,86.10
2024-04-18T16:12:30.469Z,86.20
2024-04-18T16:15:33.131Z,86.80
2024-04-18T16:18:35.585Z,87.00
2024-04-18T16:21:37.911Z,87.20
2024-04-18T16:24:40.770Z,87.80
2024-04-18T16:27:43.296Z,87.80
2024-04-18T16:30:47.752Z,88.90
2024-04-18T16:33:50.290Z,87.50
2024-04-18T16:37:04.755Z,88.00
2024-04-18T16:40:14.580Z,88.40
2024-04-18T16:43:16.938Z,88.40
2024-04-18T16:46:19.367Z,89.30
2024-04-18T16:49:21.747Z,88.60
2024-04-18T16:52:24.113Z,88.30
2024-04-18T16:55:28.548Z,88.50
2024-04-18T16:58:32.210Z,88.80
2024-04-18T17:01:34.506Z,88.50
2024-04-18T17:04:36.906Z,88.60
2024-04-18T17:07:44.524Z,88.60
2024-04-18T17:10:46.801Z,88.60
2024-04-18T17:13:52.365Z,88.40
2024-04-18T17:16:55.946Z,88.30
2024-04-18T17:19:58.287Z,88.70
2024-04-18T17:23:00.859Z,89.10
2024-04-18T17:26:03.351Z,89.50
2024-04-18T17:29:05.643Z,89.70
2024-04-18T17:32:09.727Z,89.70
2024-04-18T17:35:12.394Z,89.50
2024-04-18T17:38:15.247Z,89.90
2024-04-18T17:41:17.888Z,89.90
2024-04-18T17:44:20.330Z,89.90
2024-04-18T17:47:22.741Z,89.60
2024-04-18T17:50:25.199Z,89.70
2024-04-18T17:53:27.480Z,89.80
2024-04-18T17:56:29.895Z,90.30
2024-04-18T17:59:32.162Z,90.20
2024-04-18T18:02:34.575Z,90.10
2024-04-18T18:05:36.975Z,90.30
2024-04-18T18:08:39.252Z,90.20
2024-04-18T18:11:41.569Z,90.00
2024-04-18T18:14:44.160Z,90.10
2024-04-18T18:17:46.700Z,90.10
2024-04-18T18:20:50.066Z,90.60
2024-04-18T18:23:52.302Z,90.90
2024-04-18T18:26:54.808Z,90.90
2024-04-18T18:29:57.092Z,90.90
2024-04-18T18:33:01.954Z,91.00
2024-04-18T18:36:04.578Z,91.30
2024-04-18T18:39:06.921Z,91.20
2024-04-18T18:42:09.342Z,91.10
2024-04-18T18:45:12.031Z,91.20
2024-04-18T18:48:14.500Z,91.20
2024-04-18T18:51:16.911Z,91.30
2024-04-18T18:54:19.299Z,91.10
2024-04-18T18:57:21.794Z,91.00
2024-04-18T19:00:29.043Z,91.00
2024-04-18T19:03:31.527Z,91.10
2024-04-18T19:06:33.951Z,91.10
2024-04-18T19:09:39.758Z,91.10
2024-04-18T19:12:42.112Z,91.10
2024-04-18T19:15:44.526Z,91.00
2024-04-18T19:18:51.206Z,91.00
2024-04-18T19:21:53.955Z,91.30
2024-04-18T19:24:56.204Z,91.30
2024-04-18T19:27:59.400Z,91.40
2024-04-18T19:31:01.815Z,91.50
2024-04-18T19:34:04.381Z,91.70
2024-04-18T19:37:07.685Z,91.80
2024-04-18T19:40:10.623Z,91.70
2024-04-18T19:43:13.014Z,92.30
2024-04-18T19:46:15.334Z,92.40
2024-04-18T19:49:17.826Z,92.50
2024-04-18T19:52:20.377Z,92.60
2024-04-18T19:55:22.640Z,92.80
2024-04-18T19:58:25.056Z,92.80
2024-04-18T20:01:28.052Z,93.00
2024-04-18T20:04:30.621Z,93.10
2024-04-18T20:07:33.832Z,93.10
2024-04-18T20:10:38.172Z,93.40
2024-04-18T20:13:40.613Z,93.90
2024-04-18T20:16:45.750Z,93.80
2024-04-18T20:19:49.933Z,93.90
2024-04-18T20:22:54.372Z,94.40
2024-04-18T20:25:56.653Z,94.10
2024-04-18T20:28:58.926Z,94.20
2024-04-18T20:32:01.260Z,94.30
2024-04-18T20:35:03.701Z,94.30
2024-04-18T20:38:05.982Z,94.40
2024-04-18T20:41:08.356Z,94.40
2024-04-18T20:44:11.339Z,94.30
2024-04-18T20:47:13.999Z,94.30
2024-04-18T20:50:17.209Z,94.20
2024-04-18T20:53:19.521Z,94.20
2024-04-18T20:56:21.964Z,94.50
2024-04-18T20:59:24.243Z,94.70
2024-04-18T21:02:28.106Z,94.60
2024-04-18T21:05:30.553Z,94.50
2024-04-18T21:08:34.305Z,94.50
2024-04-18T21:11:36.625Z,94.60
2024-04-18T21:14:39.186Z,94.70
2024-04-18T21:17:41.705Z,94.60
2024-04-18T21:20:44.047Z,94.50
2024-04-18T21:23:46.470Z,94.60
2024-04-18T21:26:49.387Z,95.00
2024-04-18T21:29:51.910Z,94.40
2024-04-18T21:32:55.228Z,94.80
2024-04-18T21:35:57.609Z,94.70
2024-04-18T21:39:00.868Z,94.70
2024-04-18T21:42:03.831Z,94.90
2024-04-18T21:45:06.662Z,94.80
2024-04-18T21:48:09.313Z,94.80
2024-04-18T21:51:11.770Z,95.10
2024-04-18T21:54:14.401Z,94.60
2024-04-18T21:57:16.775Z,95.20
2024-04-18T22:00:19.257Z,95.10
2024-04-18T22:03:21.872Z,95.00
2024-04-18T22:06:24.246Z,94.80
2024-04-18T22:09:26.574Z,94.80
2024-04-18T22:12:28.976Z,95.00
2024-04-18T22:15:31.355Z,95.00
2024-04-18T22:18:34.105Z,95.00
2024-04-18T22:21:38.165Z,94.80
2024-04-18T22:24:40.724Z,95.10
2024-04-18T22:27:45.670Z,95.10
2024-04-18T22:30:56.955Z,95.30
2024-04-18T22:34:01.774Z,95.30
2024-04-18T22:37:08.778Z,95.10
2024-04-18T22:40:11.932Z,95.20
2024-04-18T22:43:14.816Z,95.30
2024-04-18T22:46:17.412Z,95.50
2024-04-18T22:49:21.879Z,95.90
2024-04-18T22:52:25.653Z,95.90
2024-04-18T22:55:31.443Z,95.50
2024-04-18T22:58:34.017Z,95.60
2024-04-18T23:01:36.438Z,95.70
2024-04-18T23:04:38.990Z,95.90
2024-04-18T23:07:41.415Z,95.80
2024-04-18T23:10:45.996Z,95.40
2024-04-18T23:13:49.264Z,95.50
2024-04-18T23:16:51.596Z,95.50
2024-04-18T23:19:54.004Z,95.70
2024-04-18T23:22:57.611Z,95.60
2024-04-18T23:25:59.894Z,95.70
2024-04-18T23:29:02.240Z,95.60
2024-04-18T23:32:04.920Z,95.50
2024-04-18T23:35:08.250Z,95.70
2024-04-18T23:38:12.952Z,95.90
2024-04-18T23:41:15.541Z,96.20
2024-04-18T23:44:18.325Z,95.80
2024-04-18T23:47:20.615Z,96.10
2024-04-18T23:50:22.921Z,95.90
2024-04-18T23:53:25.161Z,96.00
2024-04-18T23:56:27.546Z,96.10
2024-04-18T23:59:29.816Z,95.90
